| time (UTC) | temp F | wind direction | speed knots | gust knots | rain 1hr in | rain 24hr in | rain mn in | humidity % | barometer mb |
| 20260509194551 | 63 | 193 | 4.3 | 12.2 | 0.00 | 0.23 | 0.14 | 73 | 1009.4 |
| 20260509193053 | 62 | 222 | 3.5 | 13.9 | 0.00 | 0.23 | 0.14 | 77 | 1009.6 |
| 20260509191546 | 61 | 167 | 7.0 | 14.8 | 0.00 | 0.23 | 0.14 | 77 | 1009.5 |
| 20260509190043 | 60 | 189 | 5.2 | 13.9 | 0.00 | 0.23 | 0.14 | 80 | 1009.8 |
| 20260509184545 | 60 | 183 | 6.1 | 13.0 | 0.00 | 0.24 | 0.14 | 79 | 1009.9 |
| 20260509183038 | 59 | 189 | 7.8 | 13.0 | 0.00 | 0.24 | 0.14 | 81 | 1010.1 |
| 20260509181535 | 57 | 187 | 4.3 | 8.7 | 0.00 | 0.24 | 0.14 | 82 | 1010.1 |
| 20260509180033 | 57 | 340 | 2.6 | 7.0 | 0.00 | 0.24 | 0.14 | 86 | 1010.1 |
| 20260509174530 | 56 | 205 | 0.0 | 1.7 | 0.00 | 0.24 | 0.14 | 88 | 1010.3 |
| 20260509173031 | 56 | 201 | 0.0 | 5.2 | 0.00 | 0.24 | 0.14 | 87 | 1010.2 |
| 20260509171536 | 56 | 230 | 0.9 | 7.8 | 0.00 | 0.24 | 0.14 | 88 | 1010.1 |
| 20260509170029 | 56 | 190 | 2.6 | 8.7 | 0.00 | 0.24 | 0.14 | 91 | 1010.2 |
| 20260509164527 | 54 | 215 | 3.5 | 10.4 | 0.01 | 0.24 | 0.14 | 91 | 1010.2 |
| 20260509163048 | 53 | 199 | 4.3 | 8.7 | 0.01 | 0.24 | 0.14 | 91 | 1010.2 |
| 20260509161530 | 53 | 186 | 6.1 | 9.6 | 0.02 | 0.24 | 0.14 | 91 | 1010.2 |
| 20260509160023 | 52 | 208 | 5.2 | 9.6 | 0.05 | 0.24 | 0.14 | 91 | 1010.2 |
| 20260509154531 | 53 | 224 | 4.3 | 13.0 | 0.04 | 0.23 | 0.13 | 91 | 1010.1 |
| 20260509153024 | 51 | 197 | 3.5 | 8.7 | 0.04 | 0.23 | 0.13 | 91 | 1010.0 |
| 20260509151516 | 51 | 195 | 5.2 | 10.4 | 0.03 | 0.22 | 0.12 | 91 | 1010.0 |
| 20260509150015 | 51 | 166 | 5.2 | 8.7 | 0.00 | 0.19 | 0.09 | 91 | 1010.0 |
| 20260509144517 | 51 | 186 | 4.3 | 8.7 | 0.01 | 0.19 | 0.09 | 91 | 1010.1 |
| 20260509143014 | 51 | 189 | 5.2 | 10.4 | 0.01 | 0.19 | 0.09 | 91 | 1010.2 |
| 20260509141521 | 51 | 193 | 4.3 | 10.4 | 0.03 | 0.19 | 0.09 | 91 | 1010.2 |
| 20260509140007 | 50 | 176 | 6.1 | 11.3 | 0.05 | 0.19 | 0.09 | 91 | 1010.2 |
| 20260509134506 | 50 | 202 | 5.2 | 8.7 | 0.04 | 0.18 | 0.08 | 91 | 1010.3 |
| 20260509133005 | 50 | 173 | 5.2 | 10.4 | 0.03 | 0.17 | 0.07 | 91 | 1010.3 |
| 20260509131504 | 50 | 202 | 2.6 | 13.0 | 0.02 | 0.16 | 0.06 | 91 | 1010.4 |
| 20260509130003 | 50 | 186 | 3.5 | 8.7 | 0.00 | 0.14 | 0.04 | 91 | 1010.5 |
| 20260509124603 | 50 | 194 | 4.3 | 7.8 | 0.01 | 0.14 | 0.04 | 91 | 1010.4 |
| 20260509123103 | 50 | 192 | 2.6 | 8.7 | 0.01 | 0.14 | 0.04 | 91 | 1010.4 |
| 20260509121600 | 49 | 179 | 1.7 | 4.3 | 0.01 | 0.14 | 0.04 | 91 | 1010.4 |
| 20260509120052 | 49 | 180 | 1.7 | 6.1 | 0.01 | 0.14 | 0.04 | 91 | 1010.7 |
| 20260509114600 | 48 | 177 | 2.6 | 4.3 | 0.00 | 0.13 | 0.03 | 91 | 1010.5 |
| 20260509113046 | 48 | 123 | 0.9 | 2.6 | 0.00 | 0.13 | 0.03 | 91 | 1010.5 |
| 20260509111543 | 47 | 99 | 0.9 | 2.6 | 0.00 | 0.13 | 0.03 | 91 | 1010.4 |
| 20260509110043 | 47 | 99 | 0.0 | 1.7 | 0.00 | 0.13 | 0.03 | 91 | 1010.4 |
| 20260509104543 | 47 | 99 | 0.0 | 1.7 | 0.00 | 0.13 | 0.03 | 91 | 1010.4 |
| 20260509103041 | 47 | 99 | 1.7 | 2.6 | 0.01 | 0.13 | 0.03 | 91 | 1010.4 |
| 20260509101541 | 47 | 99 | 2.6 | 5.2 | 0.01 | 0.13 | 0.03 | 91 | 1010.5 |
| 20260509100039 | 47 | 121 | 0.0 | 2.6 | 0.02 | 0.13 | 0.03 | 91 | 1010.4 |
| 20260509094546 | 47 | 70 | 0.9 | 2.6 | 0.02 | 0.13 | 0.03 | 91 | 1010.6 |
| 20260509093036 | 47 | 68 | 0.0 | 1.7 | 0.01 | 0.12 | 0.02 | 90 | 1010.9 |
| 20260509091535 | 47 | 68 | 0.0 | 0.0 | 0.01 | 0.12 | 0.02 | 91 | 1011.1 |
| 20260509090054 | 47 | 68 | 0.0 | 0.0 | 0.00 | 0.11 | 0.01 | 90 | 1011.1 |
| 20260509084540 | 47 | 68 | 0.0 | 0.9 | 0.00 | 0.11 | 0.01 | 90 | 1011.1 |
| 20260509083045 | 47 | 69 | 0.0 | 0.0 | 0.00 | 0.11 | 0.01 | 90 | 1010.9 |
| 20260509081539 | 47 | 69 | 0.0 | 1.7 | 0.00 | 0.11 | 0.01 | 90 | 1011.0 |
| 20260509080045 | 47 | 69 | 0.0 | 0.9 | 0.00 | 0.11 | 0.01 | 90 | 1011.0 |
| 20260509074536 | 47 | 69 | 0.0 | 0.0 | 0.00 | 0.11 | 0.01 | 90 | 1010.9 |
| 20260509073030 | 47 | 69 | 0.0 | 0.0 | 0.00 | 0.11 | 0.01 | 90 | 1011.2 |
| 20260509071530 | 47 | 69 | 0.0 | 0.0 | 0.00 | 0.11 | 0.01 | 90 | 1011.2 |
| 20260509070035 | 46 | 69 | 0.0 | 3.5 | 0.00 | 0.11 | 0.01 | 90 | 1011.1 |
| 20260509064526 | 47 | 68 | 0.9 | 3.5 | 0.00 | 0.11 | 0.01 | 90 | 1011.3 |
| 20260509063023 | 47 | 66 | 2.6 | 3.5 | 0.00 | 0.11 | 0.01 | 89 | 1011.4 |
| 20260509061522 | 47 | 66 | 1.7 | 2.6 | 0.00 | 0.11 | 0.01 | 89 | 1011.8 |
| 20260509060021 | 47 | 63 | 0.9 | 2.6 | 0.00 | 0.11 | 0.01 | 89 | 1011.9 |
| 20260509054520 | 47 | 63 | 1.7 | 2.6 | 0.00 | 0.11 | 0.01 | 89 | 1012.0 |
| 20260509053027 | 47 | 64 | 1.7 | 2.6 | 0.00 | 0.11 | 0.01 | 89 | 1012.3 |
| 20260509051516 | 47 | 64 | 2.6 | 3.5 | 0.00 | 0.11 | 0.01 | 89 | 1012.4 |
| 20260509050034 | 47 | 66 | 1.7 | 5.2 | 0.01 | 0.11 | 0.01 | 89 | 1012.6 |
| 20260509044512 | 48 | 91 | 1.7 | 2.6 | 0.01 | 0.11 | 0.01 | 89 | 1012.9 |
| 20260509043009 | 48 | 91 | 0.9 | 2.6 | 0.01 | 0.11 | 0.01 | 89 | 1013.2 |
| 20260509041505 | 48 | 91 | 0.9 | 3.5 | 0.01 | 0.11 | 0.01 | 89 | 1013.3 |
| 20260509034607 | 48 | 175 | 0.0 | 0.0 | 0.01 | 0.10 | 0.10 | 89 | 1013.7 |
| 20260509033110 | 48 | 176 | 0.0 | 0.0 | 0.02 | 0.10 | 0.10 | 88 | 1013.9 |
| 20260509031559 | 48 | 185 | 0.0 | 0.0 | 0.03 | 0.10 | 0.10 | 88 | 1014.1 |
| 20260509030059 | 48 | 185 | 0.0 | 0.0 | 0.02 | 0.09 | 0.09 | 88 | 1014.5 |
| 20260509024605 | 48 | 182 | 0.0 | 0.0 | 0.03 | 0.09 | 0.09 | 88 | 1014.3 |
| 20260509023057 | 48 | 182 | 0.0 | 0.0 | 0.02 | 0.08 | 0.08 | 88 | 1014.4 |
| 20260509021557 | 48 | 182 | 0.0 | 0.0 | 0.01 | 0.07 | 0.07 | 88 | 1014.0 |
| 20260509020057 | 48 | 182 | 0.0 | 0.0 | 0.01 | 0.07 | 0.07 | 88 | 1013.7 |
| 20260509014556 | 48 | 182 | 0.0 | 0.0 | 0.00 | 0.06 | 0.06 | 88 | 1013.7 |
| 20260509013108 | 48 | 182 | 0.0 | 1.7 | 0.00 | 0.06 | 0.06 | 87 | 1013.5 |
| 20260509011603 | 48 | 182 | 0.9 | 2.6 | 0.00 | 0.06 | 0.06 | 87 | 1013.4 |
| 20260509010057 | 48 | 182 | 0.9 | 2.6 | 0.00 | 0.06 | 0.06 | 87 | 1013.1 |
| 20260509004600 | 49 | 182 | 0.0 | 0.0 | 0.00 | 0.06 | 0.06 | 87 | 1013.1 |
| 20260509003054 | 49 | 182 | 0.0 | 0.0 | 0.00 | 0.06 | 0.06 | 86 | 1013.0 |
| 20260509001554 | 49 | 182 | 0.0 | 0.0 | 0.00 | 0.06 | 0.06 | 86 | 1012.9 |
| 20260509000051 | 49 | 182 | 0.0 | 1.7 | 0.00 | 0.06 | 0.06 | 86 | 1012.6 |
| 20260508234551 | 50 | 182 | 0.0 | 3.5 | 0.00 | 0.06 | 0.06 | 86 | 1012.5 |
| 20260508233049 | 50 | 182 | 0.9 | 1.7 | 0.00 | 0.06 | 0.06 | 86 | 1012.6 |
| 20260508231553 | 50 | 182 | 0.0 | 0.9 | 0.00 | 0.06 | 0.06 | 85 | 1013.0 |
| 20260508230049 | 50 | 182 | 0.9 | 2.6 | 0.00 | 0.06 | 0.06 | 85 | 1013.0 |
| 20260508224605 | 50 | 182 | 1.7 | 4.3 | 0.02 | 0.06 | 0.06 | 85 | 1013.0 |
| 20260508223045 | 50 | 245 | 0.0 | 2.6 | 0.03 | 0.06 | 0.06 | 85 | 1013.1 |
| 20260508221555 | 50 | 250 | 0.9 | 8.7 | 0.04 | 0.06 | 0.06 | 84 | 1012.9 |
| 20260508220044 | 51 | 95 | 0.9 | 7.0 | 0.04 | 0.06 | 0.06 | 84 | 1013.2 |
| 20260508214548 | 51 | 220 | 0.0 | 0.0 | 0.02 | 0.04 | 0.04 | 84 | 1013.3 |
| 20260508213043 | 52 | 220 | 0.0 | 1.7 | 0.01 | 0.03 | 0.03 | 83 | 1013.3 |
| 20260508211548 | 53 | 208 | 0.9 | 3.5 | 0.00 | 0.02 | 0.02 | 80 | 1013.2 |
| 20260508210043 | 53 | 205 | 1.7 | 7.0 | 0.00 | 0.02 | 0.02 | 78 | 1012.9 |
| 20260508204543 | 53 | 241 | 2.6 | 7.8 | 0.00 | 0.02 | 0.02 | 77 | 1012.9 |
| 20260508203041 | 53 | 205 | 2.6 | 7.8 | 0.01 | 0.02 | 0.02 | 78 | 1013.1 |
| 20260508201542 | 53 | 222 | 1.7 | 7.8 | 0.01 | 0.02 | 0.02 | 78 | 1013.3 |